Hartstown, Pennsylvania
Current Conditions -  °F | °C
As of 7:53 PM on Sunday 23 Nov 2014 (Local Time) from KGKJ Reporting Station
Clear Clear  
Wind Chill: 53°   Ceiling: Unl
Heat Index: 53°   Visibility: 10mi
Dew Point: 37°   Wind: 8mph
Humidity: 55%   Direction: 120°ESE
Pressure: 29.68"   Gusts: NA
Location:  41.55°N, 80.38°W
Report Text: KGKJ 240053Z AUTO 12007KT 090V170 10SM CLR 12/03 A2968 RMK AO2 SLP054 T01170028 TSNO
Loading
Personal Weather Stations






























Interactive Weather Map New forecast layout! Learn more

10-Day Weather Forecast

Advertisements
Track Severe Weather on mobile